createdAt,value
2022-11-19T00:01:32.013Z,21.65
2022-11-19T00:03:59.130Z,19.13
2022-11-19T00:06:27.820Z,19.02
2022-11-19T00:08:55.687Z,18.35
2022-11-19T00:11:44.484Z,20.33
2022-11-19T00:14:13.885Z,21.77
2022-11-19T00:16:41.677Z,22.45
2022-11-19T00:19:10.606Z,20.73
2022-11-19T00:21:37.652Z,20.40
2022-11-19T00:24:04.798Z,22.67
2022-11-19T00:26:33.551Z,23.95
2022-11-19T00:29:00.257Z,18.30
2022-11-19T00:31:27.054Z,20.95
2022-11-19T00:33:54.726Z,19.95
2022-11-19T00:36:22.796Z,20.13
2022-11-19T00:38:52.682Z,23.83
2022-11-19T00:41:25.087Z,19.35
2022-11-19T00:43:52.043Z,23.13
2022-11-19T00:46:29.926Z,23.20
2022-11-19T00:49:00.857Z,22.98
2022-11-19T00:51:30.398Z,22.42
2022-11-19T00:53:57.854Z,23.08
2022-11-19T00:56:26.427Z,25.20
2022-11-19T00:58:53.477Z,23.52
2022-11-19T01:01:23.606Z,21.73
2022-11-19T01:03:51.444Z,22.05
2022-11-19T01:06:23.697Z,23.10
2022-11-19T01:08:52.415Z,20.17
2022-11-19T01:11:23.370Z,22.95
2022-11-19T01:13:50.758Z,23.60
2022-11-19T01:16:21.677Z,22.00
2022-11-19T01:18:50.298Z,21.48
2022-11-19T01:23:51.983Z,23.10
2022-11-19T01:26:19.750Z,23.98
2022-11-19T01:28:47.078Z,28.08
2022-11-19T01:31:20.452Z,23.40
2022-11-19T01:33:50.871Z,24.40
2022-11-19T01:36:23.936Z,26.73
2022-11-19T01:38:52.040Z,28.13
2022-11-19T01:41:20.775Z,27.35
2022-11-19T01:43:56.500Z,26.15
2022-11-19T01:46:26.262Z,27.95
2022-11-19T01:49:09.828Z,24.70
2022-11-19T01:51:57.683Z,27.73
2022-11-19T01:54:28.610Z,27.08
2022-11-19T01:56:58.373Z,28.38
2022-11-19T01:59:27.147Z,27.40
2022-11-19T02:01:54.468Z,30.98
2022-11-19T02:04:22.584Z,28.40
2022-11-19T02:06:56.938Z,28.85
2022-11-19T02:09:33.121Z,27.63
2022-11-19T02:12:27.868Z,26.52
2022-11-19T02:15:16.672Z,27.83
2022-11-19T02:18:07.539Z,28.63
2022-11-19T02:20:47.111Z,27.70
2022-11-19T02:23:43.192Z,29.25
2022-11-19T02:26:37.291Z,28.20
2022-11-19T02:29:32.078Z,26.63
2022-11-19T02:32:04.828Z,25.05
2022-11-19T02:34:35.983Z,27.88
2022-11-19T02:37:14.673Z,26.58
2022-11-19T02:39:58.572Z,24.83
2022-11-19T02:42:33.599Z,24.88
2022-11-19T02:45:10.406Z,24.13
2022-11-19T02:47:56.503Z,30.02
2022-11-19T02:50:51.064Z,29.63
2022-11-19T02:53:21.782Z,25.05
2022-11-19T02:56:08.116Z,24.80
2022-11-19T02:58:57.479Z,25.80
2022-11-19T03:01:45.631Z,26.13
2022-11-19T03:04:31.405Z,22.08
2022-11-19T03:07:13.234Z,24.02
2022-11-19T03:09:44.706Z,24.95
2022-11-19T03:12:21.879Z,21.95
2022-11-19T03:15:19.043Z,22.13
2022-11-19T03:18:02.652Z,22.23
2022-11-19T03:20:51.142Z,25.77
2022-11-19T03:23:36.222Z,19.77
2022-11-19T03:26:38.298Z,23.50
2022-11-19T03:29:10.640Z,23.25
2022-11-19T03:31:39.987Z,18.20
2022-11-19T03:34:21.380Z,21.17
2022-11-19T03:36:51.109Z,20.98
2022-11-19T03:39:20.824Z,20.80
2022-11-19T03:41:54.277Z,20.83
2022-11-19T03:44:35.298Z,22.48
2022-11-19T03:49:42.690Z,19.15
2022-11-19T03:52:21.765Z,20.90
2022-11-19T03:54:48.868Z,18.45
2022-11-19T03:57:19.118Z,21.30
2022-11-19T03:59:46.739Z,24.10
2022-11-19T04:02:14.670Z,21.95
2022-11-19T04:04:41.664Z,22.35
2022-11-19T04:07:11.524Z,22.63
2022-11-19T04:09:40.492Z,21.15
2022-11-19T04:12:14.260Z,20.52
2022-11-19T04:15:14.199Z,16.63
2022-11-19T04:17:53.539Z,18.05
2022-11-19T04:20:42.904Z,22.80
2022-11-19T04:23:33.308Z,22.60
2022-11-19T04:26:01.474Z,18.30
2022-11-19T04:28:28.715Z,16.55
2022-11-19T04:30:55.882Z,19.35
2022-11-19T04:33:58.297Z,16.65
2022-11-19T04:36:32.538Z,20.00
2022-11-19T04:38:59.589Z,17.35
2022-11-19T04:41:29.408Z,19.45
2022-11-19T04:43:56.459Z,16.80
2022-11-19T04:46:31.584Z,16.08
2022-11-19T04:48:58.747Z,16.35
2022-11-19T04:51:25.864Z,16.02
2022-11-19T04:53:53.707Z,15.98
2022-11-19T04:56:20.567Z,17.85
2022-11-19T04:58:47.579Z,15.70
2022-11-19T05:01:14.783Z,15.30
2022-11-19T05:03:41.930Z,14.00
2022-11-19T05:06:08.830Z,13.88
2022-11-19T05:08:35.728Z,14.65
2022-11-19T05:11:08.027Z,15.45
2022-11-19T05:13:34.859Z,15.50
2022-11-19T05:16:02.241Z,13.75
2022-11-19T05:18:29.171Z,12.00
2022-11-19T05:20:58.364Z,13.07
2022-11-19T05:23:25.677Z,12.25
2022-11-19T05:25:53.133Z,15.40
2022-11-19T05:28:37.973Z,13.65
2022-11-19T05:31:08.175Z,13.20
2022-11-19T05:33:35.876Z,15.20
2022-11-19T05:36:06.184Z,13.15
2022-11-19T05:38:37.909Z,14.20
2022-11-19T05:41:04.905Z,13.82
2022-11-19T05:43:32.668Z,14.63
2022-11-19T05:46:02.897Z,11.93
2022-11-19T05:48:30.464Z,15.25
2022-11-19T05:50:57.523Z,10.75
2022-11-19T05:53:24.625Z,14.57
2022-11-19T05:55:51.630Z,13.15
2022-11-19T05:58:19.840Z,12.30
2022-11-19T06:00:46.568Z,12.70
2022-11-19T06:03:43.319Z,13.68
2022-11-19T06:07:03.271Z,17.13
2022-11-19T06:09:30.215Z,10.52
2022-11-19T06:11:57.246Z,12.98
2022-11-19T06:14:26.282Z,10.70
2022-11-19T06:16:57.920Z,12.02
2022-11-19T06:19:31.457Z,12.88
2022-11-19T06:21:58.488Z,16.52
2022-11-19T06:24:31.911Z,17.35
2022-11-19T06:27:01.835Z,14.63
2022-11-19T06:29:29.091Z,14.48
2022-11-19T06:32:06.720Z,14.40
2022-11-19T06:34:36.730Z,12.40
2022-11-19T06:37:04.382Z,13.07
2022-11-19T06:39:40.973Z,12.10
2022-11-19T06:45:27.133Z,13.98
2022-11-19T06:47:54.647Z,15.73
2022-11-19T06:50:27.129Z,11.38
2022-11-19T06:52:55.691Z,13.00
2022-11-19T06:55:24.095Z,13.27
2022-11-19T06:57:51.657Z,14.07
2022-11-19T07:00:22.283Z,16.42
2022-11-19T07:02:52.006Z,12.00
2022-11-19T07:05:22.626Z,13.00
2022-11-19T07:07:51.094Z,15.00
2022-11-19T07:10:20.963Z,14.43
2022-11-19T07:12:48.299Z,15.20
2022-11-19T07:15:21.425Z,15.60
2022-11-19T07:17:51.108Z,14.07
2022-11-19T07:20:20.923Z,12.55
2022-11-19T07:22:47.941Z,14.85
2022-11-19T07:25:15.490Z,13.93
2022-11-19T07:27:48.312Z,13.23
2022-11-19T07:30:21.769Z,15.20
2022-11-19T07:32:51.296Z,13.40
2022-11-19T07:35:23.499Z,15.07
2022-11-19T07:37:51.480Z,13.63
2022-11-19T07:40:20.225Z,14.82
2022-11-19T07:42:53.467Z,15.88
2022-11-19T07:45:22.764Z,14.77
2022-11-19T07:47:50.364Z,12.90
2022-11-19T07:50:17.842Z,13.27
2022-11-19T07:52:46.705Z,14.57
2022-11-19T07:55:13.953Z,17.33
2022-11-19T07:57:40.738Z,15.32
2022-11-19T08:00:23.074Z,13.82
2022-11-19T08:02:52.305Z,13.98
2022-11-19T08:05:23.719Z,16.40
2022-11-19T08:08:17.742Z,13.98
2022-11-19T08:10:48.060Z,17.15
2022-11-19T08:13:17.656Z,14.50
2022-11-19T08:15:44.469Z,14.93
2022-11-19T08:18:13.969Z,14.13
2022-11-19T08:20:45.725Z,16.80
2022-11-19T08:23:15.245Z,16.15
2022-11-19T08:25:44.497Z,13.25
2022-11-19T08:28:12.475Z,14.82
2022-11-19T08:30:42.122Z,15.20
2022-11-19T08:33:09.235Z,15.18
2022-11-19T08:35:36.337Z,17.45
2022-11-19T08:38:06.251Z,15.57
2022-11-19T08:40:33.285Z,14.30
2022-11-19T08:43:00.123Z,12.80
2022-11-19T08:45:32.723Z,16.83
2022-11-19T08:48:02.254Z,13.95
2022-11-19T08:50:30.754Z,17.17
2022-11-19T08:53:05.227Z,13.43
2022-11-19T08:55:32.906Z,10.65
2022-11-19T08:58:04.268Z,12.38
2022-11-19T09:00:32.406Z,12.35
2022-11-19T09:03:05.007Z,15.73
2022-11-19T09:05:34.357Z,13.30
2022-11-19T09:08:01.363Z,13.55
2022-11-19T09:10:38.111Z,15.88
2022-11-19T09:13:05.911Z,13.52
2022-11-19T09:15:33.626Z,13.52
2022-11-19T09:18:02.217Z,12.73
2022-11-19T09:20:29.969Z,15.15
2022-11-19T09:22:56.959Z,13.85
2022-11-19T09:25:24.307Z,16.08
2022-11-19T09:27:51.263Z,15.98
2022-11-19T09:30:20.350Z,15.15
2022-11-19T09:32:47.448Z,13.77
2022-11-19T09:35:14.359Z,11.93
2022-11-19T09:37:43.644Z,15.98
2022-11-19T09:40:22.032Z,11.73
2022-11-19T09:43:04.228Z,15.63
2022-11-19T09:45:58.868Z,14.50
2022-11-19T09:49:00.862Z,13.10
2022-11-19T14:00:21.625Z,6.05
2022-11-19T14:03:16.525Z,3.88
2022-11-19T14:06:09.316Z,5.07
2022-11-19T14:08:57.418Z,6.75
2022-11-19T14:11:56.974Z,4.40
2022-11-19T14:14:55.366Z,4.10
2022-11-19T14:18:01.879Z,5.43
2022-11-19T14:23:23.043Z,6.13
2022-11-19T14:26:08.025Z,3.88
2022-11-19T14:28:50.785Z,4.57
2022-11-19T14:31:19.793Z,7.13
2022-11-19T14:33:49.323Z,4.70
2022-11-19T14:36:24.003Z,4.05
2022-11-19T14:38:56.797Z,5.78
2022-11-19T14:41:35.392Z,5.63
2022-11-19T14:44:35.841Z,4.13
2022-11-19T14:47:34.421Z,4.88
2022-11-19T14:50:05.540Z,4.30
2022-11-19T14:52:35.981Z,7.22
2022-11-19T14:55:19.534Z,3.45
2022-11-19T14:57:56.037Z,2.92
2022-11-19T15:00:35.848Z,3.70
2022-11-19T15:03:06.179Z,3.92
2022-11-19T15:05:39.587Z,4.13
2022-11-19T15:08:18.452Z,4.85
2022-11-19T15:11:05.204Z,3.42
2022-11-19T15:13:34.719Z,4.22
2022-11-19T15:16:26.504Z,3.97
2022-11-19T15:19:12.084Z,7.15
2022-11-19T15:21:52.135Z,6.07
2022-11-19T15:24:51.700Z,7.28
2022-11-19T15:27:39.979Z,6.47
2022-11-19T15:30:10.437Z,6.20
2022-11-19T15:32:52.076Z,6.68
2022-11-19T15:35:30.839Z,5.28
2022-11-19T15:38:27.278Z,4.45
2022-11-19T15:41:00.631Z,5.18
2022-11-19T15:43:34.382Z,5.47
2022-11-19T15:46:04.897Z,5.60
2022-11-19T15:48:41.880Z,6.72
2022-11-19T15:51:14.277Z,4.95
2022-11-19T15:54:07.107Z,9.13
2022-11-19T15:56:46.040Z,5.43
2022-11-19T15:59:14.570Z,5.15
2022-11-19T16:01:42.046Z,4.75
2022-11-19T16:04:15.211Z,6.03
2022-11-19T16:06:46.402Z,6.78
2022-11-19T16:09:23.867Z,6.40
2022-11-19T16:12:09.459Z,4.70
2022-11-19T16:14:56.345Z,5.90
2022-11-19T16:17:39.797Z,4.15
2022-11-19T16:20:11.749Z,4.90
2022-11-19T16:22:49.224Z,5.85
2022-11-19T16:25:27.184Z,6.50
2022-11-19T16:27:57.144Z,7.03
2022-11-19T16:30:29.157Z,6.53
2022-11-19T16:33:02.491Z,5.47
2022-11-19T16:35:31.859Z,5.15
2022-11-19T16:38:00.120Z,4.00
2022-11-19T16:40:48.279Z,3.78
2022-11-19T16:43:15.422Z,5.65
2022-11-19T16:45:45.663Z,5.65
2022-11-19T16:48:50.237Z,5.63
2022-11-19T16:51:31.241Z,5.95
2022-11-19T16:53:58.361Z,5.22
2022-11-19T16:56:31.690Z,7.25
2022-11-19T16:59:03.084Z,7.63
2022-11-19T17:01:30.214Z,5.78
2022-11-19T17:04:04.896Z,5.35
2022-11-19T17:06:34.820Z,7.32
2022-11-19T17:09:02.242Z,9.15
2022-11-19T17:11:59.096Z,8.07
2022-11-19T17:14:34.599Z,7.43
2022-11-19T17:17:02.851Z,6.35
2022-11-19T17:19:34.476Z,6.55
2022-11-19T17:22:03.923Z,9.10
2022-11-19T17:24:50.900Z,10.40
2022-11-19T17:27:34.442Z,9.18
2022-11-19T17:30:21.185Z,7.45
2022-11-19T17:33:14.779Z,14.05
2022-11-19T17:35:43.227Z,7.63
2022-11-19T17:38:31.189Z,6.82
2022-11-19T17:41:02.512Z,8.82
2022-11-19T17:43:56.200Z,7.25
2022-11-19T17:46:29.302Z,7.75
2022-11-19T17:48:56.924Z,6.93
2022-11-19T17:51:25.628Z,8.73
2022-11-19T17:53:52.718Z,10.55
2022-11-19T17:56:23.126Z,11.30
2022-11-19T17:58:49.841Z,9.05
2022-11-19T18:01:16.839Z,19.02
2022-11-19T18:03:46.748Z,13.40
2022-11-19T18:06:14.952Z,12.98
2022-11-19T18:08:42.289Z,11.18
2022-11-19T18:11:27.177Z,7.70
2022-11-19T18:13:56.784Z,7.05
2022-11-19T18:16:38.050Z,6.90
2022-11-19T18:19:14.582Z,9.25
2022-11-19T18:21:42.407Z,6.68
2022-11-19T18:24:12.820Z,7.22
2022-11-19T18:26:39.553Z,10.50
2022-11-19T18:29:06.269Z,8.98
2022-11-19T18:31:33.419Z,8.90
2022-11-19T18:34:00.434Z,9.15
2022-11-19T18:36:28.519Z,8.55
2022-11-19T18:38:57.472Z,10.32
2022-11-19T18:41:24.722Z,8.77
2022-11-19T18:44:09.854Z,8.43
2022-11-19T18:46:44.754Z,10.43
2022-11-19T18:49:14.135Z,10.25
2022-11-19T18:51:42.319Z,10.77
2022-11-19T18:54:11.981Z,9.05
2022-11-19T18:56:39.695Z,6.53
2022-11-19T18:59:07.608Z,6.55
2022-11-19T19:01:34.504Z,6.47
2022-11-19T19:04:02.031Z,6.07
2022-11-19T19:06:29.025Z,6.70
2022-11-19T19:08:56.620Z,7.05
2022-11-19T19:11:43.138Z,8.93
2022-11-19T19:14:09.789Z,9.02
2022-11-19T19:16:36.643Z,6.70
2022-11-19T19:19:04.186Z,8.05
2022-11-19T19:23:59.341Z,10.23
2022-11-19T19:26:26.060Z,10.05
2022-11-19T19:28:53.948Z,8.48
2022-11-19T19:31:24.684Z,8.02
2022-11-19T19:33:52.084Z,9.93
2022-11-19T19:36:22.049Z,9.38
2022-11-19T19:38:48.980Z,10.15
2022-11-19T19:41:25.992Z,9.93
2022-11-19T19:43:54.738Z,9.30
2022-11-19T19:46:23.498Z,11.75
2022-11-19T19:48:54.881Z,8.10
2022-11-19T19:51:23.741Z,9.30
2022-11-19T19:53:51.081Z,8.90
2022-11-19T19:56:23.743Z,12.45
2022-11-19T19:58:50.983Z,10.05
2022-11-19T20:01:21.775Z,9.32
2022-11-19T20:03:54.120Z,10.50
2022-11-19T20:06:23.154Z,9.20
2022-11-19T20:08:50.903Z,10.48
2022-11-19T20:11:24.835Z,10.85
2022-11-19T20:13:55.919Z,9.70
2022-11-19T20:16:33.776Z,13.23
2022-11-19T20:19:02.303Z,10.32
2022-11-19T20:21:34.023Z,8.57
2022-11-19T20:24:00.781Z,8.50
2022-11-19T20:26:30.081Z,11.77
2022-11-19T20:28:58.850Z,7.90
2022-11-19T20:31:27.081Z,8.95
2022-11-19T20:33:57.106Z,9.98
2022-11-19T20:36:25.290Z,6.57
2022-11-19T20:38:52.494Z,9.43
2022-11-19T20:41:39.279Z,10.27
2022-11-19T20:44:22.746Z,7.10
2022-11-19T20:47:07.816Z,12.27
2022-11-19T20:49:36.243Z,9.55
2022-11-19T20:52:03.536Z,8.88
2022-11-19T20:54:30.299Z,9.77
2022-11-19T20:56:57.780Z,13.55
2022-11-19T20:59:26.241Z,10.25
2022-11-19T21:01:54.392Z,12.02
2022-11-19T21:04:21.730Z,12.55
2022-11-19T21:06:49.875Z,10.52
2022-11-19T21:09:16.607Z,12.00
2022-11-19T21:11:43.776Z,12.43
2022-11-19T21:14:10.260Z,14.80
2022-11-19T21:16:36.993Z,10.63
2022-11-19T21:19:04.217Z,12.30
2022-11-19T21:21:30.697Z,11.10
2022-11-19T21:23:57.501Z,13.20
2022-11-19T21:26:25.936Z,10.43
2022-11-19T21:28:54.910Z,9.73
2022-11-19T21:31:37.708Z,12.40
2022-11-19T21:34:06.090Z,10.45
2022-11-19T21:36:34.802Z,12.15
2022-11-19T21:41:27.641Z,8.63
2022-11-19T21:43:54.080Z,9.88
2022-11-19T21:46:20.600Z,9.93
2022-11-19T21:48:47.291Z,9.02
2022-11-19T21:51:13.704Z,10.23
2022-11-19T21:53:40.228Z,10.30
2022-11-19T21:56:07.571Z,10.18
2022-11-19T21:58:33.985Z,9.93
2022-11-19T22:01:02.404Z,8.60
2022-11-19T22:03:31.444Z,9.00
2022-11-19T22:06:12.118Z,8.77
2022-11-19T22:08:40.711Z,9.57
2022-11-19T22:11:27.527Z,11.88
2022-11-19T22:13:55.382Z,9.85
2022-11-19T22:16:23.578Z,9.23
2022-11-19T22:18:50.434Z,10.98
2022-11-19T22:21:20.523Z,13.35
2022-11-19T22:23:47.251Z,11.80
2022-11-19T22:26:15.818Z,10.18
2022-11-19T22:28:42.408Z,10.10
2022-11-19T22:31:09.575Z,11.07
2022-11-19T22:33:38.647Z,14.68
2022-11-19T22:36:10.021Z,13.15
2022-11-19T22:38:38.260Z,13.25
2022-11-19T22:41:17.374Z,10.93
2022-11-19T22:43:44.363Z,13.25
2022-11-19T22:46:12.872Z,15.70
2022-11-19T22:48:42.754Z,12.05
2022-11-19T22:51:13.781Z,10.68
2022-11-19T22:53:41.393Z,10.60
2022-11-19T22:56:14.827Z,10.52
2022-11-19T22:58:43.071Z,10.18
2022-11-19T23:01:19.486Z,9.10
2022-11-19T23:03:46.876Z,11.32
2022-11-19T23:06:15.404Z,11.07
2022-11-19T23:08:42.856Z,11.07
2022-11-19T23:11:11.062Z,9.20
2022-11-19T23:13:40.789Z,11.85
2022-11-19T23:16:22.021Z,10.45
2022-11-19T23:18:50.851Z,9.10
2022-11-19T23:21:22.004Z,10.68
2022-11-19T23:23:52.302Z,14.27
2022-11-19T23:26:22.998Z,12.60
2022-11-19T23:28:50.357Z,12.15
2022-11-19T23:31:20.176Z,10.77
2022-11-19T23:33:47.955Z,11.65
2022-11-19T23:36:21.333Z,13.52
2022-11-19T23:38:48.514Z,10.55
2022-11-19T23:41:17.224Z,11.25
2022-11-19T23:43:45.945Z,10.02
2022-11-19T23:48:48.302Z,8.70
2022-11-19T23:51:28.492Z,9.85
2022-11-19T23:53:59.851Z,10.52
2022-11-19T23:56:29.024Z,10.77
2022-11-19T23:58:56.126Z,10.50
